createdAt,value
2022-12-02T00:02:35.366Z,5.62
2022-12-02T00:05:27.794Z,5.61
2022-12-02T00:07:58.185Z,5.61
2022-12-02T00:10:34.207Z,5.63
2022-12-02T00:13:24.056Z,5.60
2022-12-02T00:15:55.931Z,5.58
2022-12-02T00:18:23.349Z,5.58
2022-12-02T00:20:50.373Z,5.51
2022-12-02T00:23:18.820Z,5.47
2022-12-02T00:25:49.476Z,5.46
2022-12-02T00:28:16.742Z,5.42
2022-12-02T00:30:44.484Z,5.40
2022-12-02T00:33:12.277Z,5.37
2022-12-02T00:35:39.537Z,5.35
2022-12-02T00:38:06.857Z,5.29
2022-12-02T00:40:33.804Z,5.26
2022-12-02T00:43:21.486Z,5.24
2022-12-02T00:46:07.693Z,5.23
2022-12-02T00:48:35.477Z,5.20
2022-12-02T00:51:03.436Z,5.19
2022-12-02T00:53:30.879Z,5.18
2022-12-02T00:55:58.278Z,5.19
2022-12-02T00:58:25.360Z,5.20
2022-12-02T01:00:52.461Z,5.20
2022-12-02T01:03:19.622Z,5.22
2022-12-02T01:05:46.578Z,5.21
2022-12-02T01:08:13.676Z,5.20
2022-12-02T01:10:40.934Z,5.23
2022-12-02T01:13:07.937Z,5.18
2022-12-02T01:15:35.172Z,5.20
2022-12-02T01:18:02.340Z,5.23
2022-12-02T01:20:29.281Z,5.23
2022-12-02T01:22:56.485Z,5.21
2022-12-02T01:25:23.659Z,5.23
2022-12-02T01:27:50.703Z,5.24
2022-12-02T01:30:17.697Z,5.24
2022-12-02T01:32:45.066Z,5.23
2022-12-02T01:35:12.117Z,5.24
2022-12-02T01:37:39.357Z,5.26
2022-12-02T01:40:09.340Z,5.26
2022-12-02T01:42:36.786Z,5.30
2022-12-02T01:45:04.376Z,5.31
2022-12-02T01:47:31.886Z,5.31
2022-12-02T01:49:59.058Z,5.28
2022-12-02T01:52:26.479Z,5.31
2022-12-02T01:54:53.969Z,5.32
2022-12-02T01:57:27.496Z,5.32
2022-12-02T01:59:55.196Z,5.34
2022-12-02T02:02:30.683Z,5.36
2022-12-02T02:05:01.959Z,5.34
2022-12-02T02:07:30.445Z,5.34
2022-12-02T02:09:57.441Z,5.34
2022-12-02T02:12:25.697Z,5.34
2022-12-02T02:14:53.893Z,5.33
2022-12-02T02:17:21.218Z,5.32
2022-12-02T02:19:49.037Z,5.34
2022-12-02T02:22:22.179Z,5.31
2022-12-02T02:24:49.940Z,5.34
2022-12-02T02:27:18.265Z,5.34
2022-12-02T02:29:45.765Z,5.37
2022-12-02T02:32:13.158Z,5.35
2022-12-02T02:34:40.497Z,5.33
2022-12-02T02:37:07.558Z,5.31
2022-12-02T02:39:34.878Z,5.30
2022-12-02T02:42:02.320Z,5.29
2022-12-02T02:44:30.157Z,5.26
2022-12-02T02:46:58.037Z,5.22
2022-12-02T02:49:25.759Z,5.20
2022-12-02T02:51:53.037Z,5.15
2022-12-02T02:54:20.437Z,5.12
2022-12-02T02:56:47.595Z,5.10
2022-12-02T02:59:16.067Z,5.08
2022-12-02T03:01:47.198Z,5.13
2022-12-02T03:04:17.576Z,5.12
2022-12-02T03:06:45.804Z,5.09
2022-12-02T03:09:16.564Z,5.06
2022-12-02T03:11:45.807Z,5.03
2022-12-02T03:14:15.809Z,5.00
2022-12-02T03:16:45.239Z,4.99
2022-12-02T03:19:12.896Z,4.99
2022-12-02T03:21:40.597Z,4.98
2022-12-02T03:24:07.879Z,4.97
2022-12-02T03:26:35.517Z,4.98
2022-12-02T03:29:04.736Z,4.99
2022-12-02T03:31:34.697Z,4.97
2022-12-02T03:34:01.979Z,4.96
2022-12-02T03:36:29.500Z,4.89
2022-12-02T03:38:57.159Z,4.86
2022-12-02T03:41:26.797Z,4.82
2022-12-02T03:43:56.605Z,4.86
2022-12-02T03:46:23.892Z,4.89
2022-12-02T03:48:51.157Z,4.87
2022-12-02T03:51:18.518Z,4.84
2022-12-02T03:53:46.141Z,4.87
2022-12-02T03:56:13.399Z,4.91
2022-12-02T03:58:46.860Z,4.93
2022-12-02T04:01:15.243Z,4.94
2022-12-02T04:03:42.278Z,4.94
2022-12-02T04:06:09.678Z,4.92
2022-12-02T04:08:36.879Z,4.91
2022-12-02T04:11:04.025Z,4.90
2022-12-02T04:13:31.498Z,4.90
2022-12-02T04:15:58.792Z,4.85
2022-12-02T04:18:26.157Z,4.90
2022-12-02T04:20:53.240Z,4.88
2022-12-02T04:23:20.344Z,4.88
2022-12-02T04:25:47.438Z,4.91
2022-12-02T04:28:14.537Z,4.91
2022-12-02T04:30:41.984Z,4.84
2022-12-02T04:33:09.477Z,4.83
2022-12-02T04:35:36.539Z,4.82
2022-12-02T04:38:08.670Z,4.84
2022-12-02T04:40:38.736Z,4.82
2022-12-02T04:43:05.820Z,4.76
2022-12-02T04:45:33.317Z,4.74
2022-12-02T04:48:00.497Z,4.76
2022-12-02T04:50:27.480Z,4.73
2022-12-02T04:52:54.460Z,4.73
2022-12-02T04:55:21.596Z,4.71
2022-12-02T04:57:48.597Z,4.69
2022-12-02T05:00:16.157Z,4.65
2022-12-02T05:02:43.196Z,4.59
2022-12-02T05:05:10.757Z,4.57
2022-12-02T05:07:37.962Z,4.59
2022-12-02T05:10:06.283Z,4.57
2022-12-02T05:12:33.297Z,4.56
2022-12-02T05:15:00.416Z,4.54
2022-12-02T05:17:27.500Z,4.57
2022-12-02T05:19:54.474Z,4.57
2022-12-02T05:22:21.360Z,4.54
2022-12-02T05:24:48.763Z,4.53
2022-12-02T05:27:16.504Z,4.49
2022-12-02T05:29:43.541Z,4.49
2022-12-02T05:32:10.583Z,4.44
2022-12-02T05:34:37.500Z,4.44
2022-12-02T05:37:04.630Z,4.41
2022-12-02T05:39:31.610Z,4.41
2022-12-02T05:42:06.561Z,4.41
2022-12-02T05:44:39.388Z,4.38
2022-12-02T05:47:11.867Z,4.39
2022-12-02T05:49:40.449Z,4.39
2022-12-02T05:52:23.850Z,4.36
2022-12-02T05:55:00.269Z,4.32
2022-12-02T05:57:31.777Z,4.30
2022-12-02T06:00:22.968Z,4.31
2022-12-02T06:02:51.701Z,4.29
2022-12-02T06:05:22.719Z,4.28
2022-12-02T06:08:19.423Z,4.28
2022-12-02T06:11:03.320Z,4.26
2022-12-02T06:13:35.740Z,4.23
2022-12-02T06:16:06.766Z,4.21
2022-12-02T06:18:36.620Z,4.20
2022-12-02T06:21:05.641Z,4.15
2022-12-02T06:23:33.470Z,4.13
2022-12-02T06:26:00.722Z,4.12
2022-12-02T06:28:38.402Z,4.08
2022-12-02T06:31:15.373Z,4.06
2022-12-02T06:33:43.920Z,4.04
2022-12-02T06:36:15.664Z,4.02
2022-12-02T06:38:50.710Z,4.02
2022-12-02T06:41:25.403Z,4.01
2022-12-02T06:44:16.422Z,4.03
2022-12-02T06:46:43.619Z,3.95
2022-12-02T06:49:19.000Z,3.95
2022-12-02T06:51:46.239Z,3.96
2022-12-02T06:54:21.084Z,3.91
2022-12-02T06:56:49.782Z,3.86
2022-12-02T06:59:21.623Z,3.82
2022-12-02T07:01:48.840Z,3.80
2022-12-02T07:04:31.468Z,3.68
2022-12-02T07:07:03.022Z,3.65
2022-12-02T07:09:43.147Z,3.61
2022-12-02T07:12:20.567Z,3.59
2022-12-02T07:14:47.547Z,3.51
2022-12-02T07:17:20.079Z,3.52
2022-12-02T07:19:50.584Z,3.49
2022-12-02T07:22:24.266Z,3.50
2022-12-02T07:25:02.180Z,3.44
2022-12-02T07:27:31.400Z,3.45
2022-12-02T07:29:59.440Z,3.44
2022-12-02T07:32:26.519Z,3.48
2022-12-02T07:34:53.958Z,3.46
2022-12-02T07:37:21.303Z,3.47
2022-12-02T07:39:48.362Z,3.43
2022-12-02T07:42:15.380Z,3.44
2022-12-02T07:44:42.423Z,3.43
2022-12-02T07:47:09.602Z,3.45
2022-12-02T07:49:36.660Z,3.47
2022-12-02T07:52:04.185Z,3.48
2022-12-02T07:54:31.234Z,3.49
2022-12-02T07:56:58.200Z,3.51
2022-12-02T07:59:25.141Z,3.55
2022-12-02T08:01:52.267Z,3.53
2022-12-02T08:04:19.267Z,3.58
2022-12-02T08:06:46.259Z,3.58
2022-12-02T08:09:13.280Z,3.61
2022-12-02T08:11:40.384Z,3.59
2022-12-02T08:14:07.519Z,3.64
2022-12-02T08:16:35.052Z,3.66
2022-12-02T08:19:02.293Z,3.69
2022-12-02T08:21:30.861Z,3.73
2022-12-02T08:23:57.903Z,3.72
2022-12-02T08:26:24.919Z,3.71
2022-12-02T08:28:54.172Z,3.73
2022-12-02T08:31:22.251Z,3.77
2022-12-02T08:33:50.082Z,3.77
2022-12-02T08:36:17.281Z,3.79
2022-12-02T08:38:45.039Z,3.74
2022-12-02T08:41:14.199Z,3.76
2022-12-02T08:43:42.254Z,3.74
2022-12-02T08:46:10.545Z,3.77
2022-12-02T08:48:37.682Z,3.73
2022-12-02T08:51:04.882Z,3.74
2022-12-02T08:53:31.940Z,3.77
2022-12-02T08:55:59.067Z,3.80
2022-12-02T08:58:26.062Z,3.78
2022-12-02T09:00:53.159Z,3.75
2022-12-02T09:03:20.201Z,3.77
2022-12-02T09:05:47.228Z,3.76
2022-12-02T09:08:14.922Z,3.81
2022-12-02T09:10:42.100Z,3.85
2022-12-02T09:13:09.208Z,3.87
2022-12-02T09:15:36.369Z,3.92
2022-12-02T09:18:03.521Z,3.86
2022-12-02T09:20:30.741Z,3.84
2022-12-02T09:22:58.189Z,3.78
2022-12-02T09:25:25.279Z,3.82
2022-12-02T09:27:52.267Z,3.81
2022-12-02T09:30:19.879Z,3.86
2022-12-02T09:32:46.961Z,3.83
2022-12-02T09:35:14.060Z,3.82
2022-12-02T09:37:41.039Z,3.83
2022-12-02T09:40:09.600Z,3.86
2022-12-02T09:42:36.861Z,3.87
2022-12-02T09:45:04.560Z,3.92
2022-12-02T09:47:31.699Z,3.88
2022-12-02T09:49:59.241Z,3.90
2022-12-02T09:52:27.665Z,3.88
2022-12-02T09:54:57.813Z,3.90
2022-12-02T09:57:33.016Z,3.98
2022-12-02T10:00:06.230Z,3.94
2022-12-02T10:02:46.408Z,3.98
2022-12-02T10:05:18.341Z,4.01
2022-12-02T10:07:46.674Z,4.01
2022-12-02T10:10:17.246Z,4.01
2022-12-02T10:12:44.811Z,4.05
2022-12-02T10:15:14.602Z,3.97
2022-12-02T10:17:44.501Z,3.98
2022-12-02T10:20:19.902Z,4.07
2022-12-02T10:23:20.505Z,4.03
2022-12-02T10:26:13.588Z,4.05
2022-12-02T10:28:42.021Z,4.06
2022-12-02T10:31:15.434Z,4.08
2022-12-02T10:33:53.350Z,4.08
2022-12-02T10:36:43.086Z,4.08
2022-12-02T10:39:31.367Z,4.09
2022-12-02T10:42:08.925Z,4.14
2022-12-02T10:44:38.759Z,4.15
2022-12-02T10:47:26.517Z,4.13
2022-12-02T10:49:57.705Z,4.16
2022-12-02T10:52:32.065Z,4.15
2022-12-02T10:55:00.109Z,4.16
2022-12-02T10:57:30.160Z,4.24
2022-12-02T11:00:01.830Z,4.27
2022-12-02T11:02:54.868Z,4.31
2022-12-02T11:05:31.473Z,4.25
2022-12-02T11:08:07.071Z,4.26
2022-12-02T11:10:38.180Z,4.29
2022-12-02T11:13:07.383Z,4.32
2022-12-02T11:15:43.442Z,4.35
2022-12-02T11:18:25.640Z,4.38
2022-12-02T11:21:16.408Z,4.37
2022-12-02T11:23:43.422Z,4.35
2022-12-02T11:26:12.380Z,4.30
2022-12-02T11:28:57.803Z,4.33
2022-12-02T11:31:26.064Z,4.29
2022-12-02T11:33:57.104Z,4.30
2022-12-02T11:36:27.720Z,4.24
2022-12-02T11:38:54.904Z,4.18
2022-12-02T11:41:27.967Z,4.18
2022-12-02T11:43:56.435Z,4.11
2022-12-02T11:47:07.062Z,4.10
2022-12-02T11:49:41.468Z,4.09
2022-12-02T11:52:14.241Z,4.10
2022-12-02T11:54:45.802Z,4.03
2022-12-02T11:57:43.819Z,4.05
2022-12-02T12:00:20.120Z,4.01
2022-12-02T12:13:24.680Z,3.20
2022-12-02T12:15:58.927Z,3.18
2022-12-02T12:18:39.454Z,3.21
2022-12-02T12:21:07.535Z,3.25
2022-12-02T12:23:40.421Z,3.34
2022-12-02T12:26:09.102Z,3.44
2022-12-02T12:28:38.102Z,3.53
2022-12-02T12:31:07.065Z,3.61
2022-12-02T12:33:34.210Z,3.64
2022-12-02T12:36:01.325Z,3.66
2022-12-02T12:38:30.874Z,3.70
2022-12-02T12:40:58.634Z,3.75
2022-12-02T12:43:26.010Z,3.75
2022-12-02T12:45:53.196Z,3.80
2022-12-02T12:48:20.282Z,3.82
2022-12-02T12:50:47.385Z,3.84
2022-12-02T12:53:14.402Z,3.89
2022-12-02T12:55:41.461Z,3.91
2022-12-02T12:58:08.461Z,3.96
2022-12-02T13:00:35.481Z,3.96
2022-12-02T13:03:02.572Z,3.94
2022-12-02T13:05:29.663Z,3.95
2022-12-02T13:07:57.525Z,3.90
2022-12-02T13:10:24.760Z,3.89
2022-12-02T13:12:52.220Z,3.92
2022-12-02T13:15:19.500Z,3.94
2022-12-02T13:17:49.183Z,3.92
2022-12-02T13:20:17.900Z,3.94
2022-12-02T13:22:44.920Z,3.95
2022-12-02T13:25:13.360Z,3.94
2022-12-02T13:27:40.801Z,3.92
2022-12-02T13:30:12.383Z,3.91
2022-12-02T13:32:39.762Z,3.88
2022-12-02T13:35:07.230Z,3.87
2022-12-02T13:37:35.141Z,3.83
2022-12-02T13:40:03.446Z,3.85
2022-12-02T13:42:30.560Z,3.79
2022-12-02T13:44:57.641Z,3.84
2022-12-02T13:47:24.700Z,3.85
2022-12-02T13:49:51.918Z,3.87
2022-12-02T13:52:19.207Z,3.86
2022-12-02T13:54:46.080Z,3.87
2022-12-02T13:57:13.122Z,3.84
2022-12-02T13:59:40.100Z,3.84
2022-12-02T14:02:07.950Z,3.83
2022-12-02T14:04:35.001Z,3.82
2022-12-02T14:07:02.029Z,3.79
2022-12-02T14:09:29.140Z,3.80
2022-12-02T14:11:56.224Z,3.82
2022-12-02T14:14:24.439Z,3.85
2022-12-02T14:16:51.261Z,3.82
2022-12-02T14:19:18.239Z,3.84
2022-12-02T14:21:45.486Z,3.88
2022-12-02T14:24:12.420Z,3.89
2022-12-02T14:26:39.643Z,3.92
2022-12-02T14:29:06.659Z,3.90
2022-12-02T14:31:33.761Z,3.87
2022-12-02T14:34:15.938Z,3.84
2022-12-02T14:36:43.643Z,3.88
2022-12-02T14:39:11.187Z,3.94
2022-12-02T14:41:38.308Z,3.90
2022-12-02T14:44:05.566Z,3.92
2022-12-02T14:46:32.705Z,3.87
2022-12-02T14:49:30.611Z,3.86
2022-12-02T14:51:47.627Z,3.86
2022-12-02T14:54:14.622Z,3.87
2022-12-02T14:56:41.625Z,3.85
2022-12-02T14:59:14.452Z,3.82
2022-12-02T15:01:42.447Z,3.81
2022-12-02T15:04:09.713Z,3.76
2022-12-02T15:06:37.106Z,3.75
2022-12-02T15:09:05.301Z,3.71
2022-12-02T15:11:32.446Z,3.68
2022-12-02T15:13:59.539Z,3.66
2022-12-02T15:16:26.883Z,3.67
2022-12-02T15:18:54.282Z,3.71
2022-12-02T15:21:21.221Z,3.72
2022-12-02T15:23:48.499Z,3.69
2022-12-02T15:26:15.787Z,3.68
2022-12-02T15:28:43.240Z,3.63
2022-12-02T15:31:10.301Z,3.58
2022-12-02T15:33:37.579Z,3.52
2022-12-02T15:36:05.099Z,3.51
2022-12-02T15:38:33.320Z,3.50
2022-12-02T15:41:01.080Z,3.50
2022-12-02T15:43:28.382Z,3.48
2022-12-02T15:45:55.462Z,3.51
2022-12-02T15:48:22.520Z,3.48
2022-12-02T15:50:54.667Z,3.50
2022-12-02T15:53:23.196Z,3.49
2022-12-02T15:55:51.140Z,3.47
2022-12-02T15:58:19.142Z,3.49
2022-12-02T16:00:46.557Z,3.47
2022-12-02T16:03:13.828Z,3.45
2022-12-02T16:05:41.064Z,3.48
2022-12-02T16:08:08.347Z,3.47
2022-12-02T16:10:35.680Z,3.49
2022-12-02T16:13:02.919Z,3.50
2022-12-02T16:15:30.141Z,3.53
2022-12-02T16:17:57.630Z,3.50
2022-12-02T16:20:24.861Z,3.50
2022-12-02T16:22:52.023Z,3.51
2022-12-02T16:25:19.132Z,3.51
2022-12-02T16:27:46.340Z,3.49
2022-12-02T16:30:13.801Z,3.50
2022-12-02T16:32:41.020Z,3.47
2022-12-02T16:35:08.603Z,3.45
2022-12-02T16:37:35.887Z,3.44
2022-12-02T16:40:03.420Z,3.39
2022-12-02T16:42:30.521Z,3.39
2022-12-02T16:44:58.064Z,3.36
2022-12-02T16:47:25.616Z,3.35
2022-12-02T16:49:52.923Z,3.38
2022-12-02T16:52:20.562Z,3.44
2022-12-02T16:54:47.600Z,3.42
2022-12-02T16:57:14.901Z,3.48
2022-12-02T16:59:42.201Z,3.52
2022-12-02T17:02:10.749Z,3.51
2022-12-02T17:04:37.877Z,3.59
2022-12-02T17:07:05.105Z,3.61
2022-12-02T17:09:32.178Z,3.59
2022-12-02T17:11:59.843Z,3.53
2022-12-02T17:14:26.956Z,3.50
2022-12-02T17:16:54.105Z,3.57
2022-12-02T17:19:21.860Z,3.57
2022-12-02T17:21:48.861Z,3.56
2022-12-02T17:24:15.841Z,3.56
2022-12-02T17:26:42.809Z,3.53
2022-12-02T17:29:09.979Z,3.51
2022-12-02T17:31:36.951Z,3.52
2022-12-02T17:34:04.046Z,3.49
2022-12-02T17:36:31.061Z,3.50
2022-12-02T17:38:58.280Z,3.47
2022-12-02T17:41:26.740Z,3.46
2022-12-02T17:43:54.179Z,3.46
2022-12-02T17:46:21.348Z,3.45
2022-12-02T17:48:49.309Z,3.44
2022-12-02T17:51:17.761Z,3.46
2022-12-02T17:53:45.061Z,3.46
2022-12-02T17:56:12.201Z,3.43
2022-12-02T17:58:39.420Z,3.42
2022-12-02T18:01:11.710Z,3.45
2022-12-02T18:03:40.531Z,3.42
2022-12-02T18:06:07.891Z,3.42
2022-12-02T18:08:35.363Z,3.41
2022-12-02T18:11:02.919Z,3.41
2022-12-02T18:13:30.484Z,3.38
2022-12-02T18:15:57.748Z,3.42
2022-12-02T18:18:24.975Z,3.39
2022-12-02T18:20:51.923Z,3.40
2022-12-02T18:23:21.591Z,3.41
2022-12-02T18:25:50.783Z,3.36
2022-12-02T18:28:17.679Z,3.37
2022-12-02T18:30:44.794Z,3.38
2022-12-02T18:33:11.772Z,3.35
2022-12-02T18:35:38.802Z,3.34
2022-12-02T18:38:05.776Z,3.33
2022-12-02T18:40:32.924Z,3.35
2022-12-02T18:42:59.923Z,3.33
2022-12-02T18:45:27.060Z,3.35
2022-12-02T18:47:54.042Z,3.40
2022-12-02T18:50:21.472Z,3.38
2022-12-02T18:52:49.767Z,3.33
2022-12-02T18:55:16.887Z,3.35
2022-12-02T18:57:43.928Z,3.38
2022-12-02T19:00:13.979Z,3.40
2022-12-02T19:02:41.697Z,3.37
2022-12-02T19:05:09.652Z,3.40
2022-12-02T19:07:37.279Z,3.38
2022-12-02T19:10:05.935Z,3.38
2022-12-02T19:12:33.141Z,3.34
2022-12-02T19:15:00.282Z,3.39
2022-12-02T19:17:27.381Z,3.40
2022-12-02T19:19:54.374Z,3.42
2022-12-02T19:22:22.082Z,3.37
2022-12-02T19:24:49.290Z,3.41
2022-12-02T19:27:55.712Z,3.42
2022-12-02T19:30:04.261Z,3.37
2022-12-02T19:32:31.220Z,3.37
2022-12-02T19:34:58.222Z,3.39
2022-12-02T19:37:25.550Z,3.44
2022-12-02T19:39:52.782Z,3.48
2022-12-02T19:42:19.900Z,3.55
2022-12-02T19:44:46.984Z,3.60
2022-12-02T19:47:14.949Z,3.60
2022-12-02T19:49:43.169Z,3.59
2022-12-02T19:52:10.141Z,3.56
2022-12-02T19:54:37.220Z,3.54
2022-12-02T19:57:04.394Z,3.50
2022-12-02T19:59:31.428Z,3.49
2022-12-02T20:01:58.747Z,3.47
2022-12-02T20:04:40.720Z,3.44
2022-12-02T20:07:08.808Z,3.39
2022-12-02T20:09:35.992Z,3.38
2022-12-02T20:12:02.975Z,3.38
2022-12-02T20:14:30.000Z,3.36
2022-12-02T20:16:57.280Z,3.32
2022-12-02T20:19:24.340Z,3.26
2022-12-02T20:21:51.550Z,3.21
2022-12-02T20:24:18.513Z,3.23
2022-12-02T20:26:45.594Z,3.18
2022-12-02T20:29:12.681Z,3.17
2022-12-02T20:31:40.017Z,3.20
2022-12-02T20:34:07.700Z,3.19
2022-12-02T20:36:34.860Z,3.22
2022-12-02T20:39:01.961Z,3.23
2022-12-02T20:41:29.039Z,3.24
2022-12-02T20:43:56.001Z,3.25
2022-12-02T20:46:28.708Z,3.28
2022-12-02T20:48:55.930Z,3.25
2022-12-02T20:51:23.042Z,3.21
2022-12-02T20:53:50.961Z,3.29
2022-12-02T20:56:18.020Z,3.32
2022-12-02T20:58:46.923Z,3.33
2022-12-02T21:01:14.029Z,3.29
2022-12-02T21:03:41.108Z,3.35
2022-12-02T21:06:09.020Z,3.33
2022-12-02T21:08:36.921Z,3.28
2022-12-02T21:11:04.577Z,3.34
2022-12-02T21:13:31.820Z,3.35
2022-12-02T21:15:58.791Z,3.34
2022-12-02T21:18:26.479Z,3.35
2022-12-02T21:20:53.742Z,3.37
2022-12-02T21:23:20.760Z,3.38
2022-12-02T21:25:47.761Z,3.39
2022-12-02T21:28:14.800Z,3.44
2022-12-02T21:30:42.601Z,3.42
2022-12-02T21:33:09.661Z,3.41
2022-12-02T21:35:36.641Z,3.40
2022-12-02T21:38:03.809Z,3.44
2022-12-02T21:40:30.779Z,3.42
2022-12-02T21:42:57.840Z,3.37
2022-12-02T21:45:24.945Z,3.41
2022-12-02T21:47:52.040Z,3.41
2022-12-02T21:50:19.181Z,3.40
2022-12-02T21:52:46.281Z,3.40
2022-12-02T21:55:13.434Z,3.38
2022-12-02T21:57:40.483Z,3.40
2022-12-02T22:00:08.100Z,3.37
2022-12-02T22:02:41.138Z,3.42
2022-12-02T22:05:08.786Z,3.40
2022-12-02T22:07:41.669Z,3.41
2022-12-02T22:10:12.401Z,3.40
2022-12-02T22:12:39.503Z,3.39
2022-12-02T22:15:07.339Z,3.40
2022-12-02T22:17:34.420Z,3.37
2022-12-02T22:20:01.621Z,3.40
2022-12-02T22:22:28.639Z,3.39
2022-12-02T22:24:56.002Z,3.40
2022-12-02T22:27:23.163Z,3.35
2022-12-02T22:29:50.341Z,3.33
2022-12-02T22:32:17.519Z,3.31
2022-12-02T22:34:44.620Z,3.29
2022-12-02T22:37:11.659Z,3.24
2022-12-02T22:39:38.641Z,3.29
2022-12-02T22:42:05.702Z,3.33
2022-12-02T22:44:32.679Z,3.37
2022-12-02T22:47:00.040Z,3.38
2022-12-02T22:49:27.080Z,3.37
2022-12-02T22:51:54.121Z,3.36
2022-12-02T22:54:21.143Z,3.41
2022-12-02T22:56:48.148Z,3.45
2022-12-02T22:59:15.100Z,3.47
2022-12-02T23:01:42.197Z,3.46
2022-12-02T23:04:09.280Z,3.43
2022-12-02T23:06:36.320Z,3.46
2022-12-02T23:09:03.380Z,3.46
2022-12-02T23:11:30.479Z,3.47
2022-12-02T23:13:57.461Z,3.51
2022-12-02T23:16:24.624Z,3.54
2022-12-02T23:18:51.660Z,3.52
2022-12-02T23:21:18.679Z,3.50
2022-12-02T23:23:45.680Z,3.54
2022-12-02T23:26:12.640Z,3.53
2022-12-02T23:28:39.740Z,3.53
2022-12-02T23:31:06.932Z,3.47
2022-12-02T23:33:33.919Z,3.51
2022-12-02T23:36:00.944Z,3.46
2022-12-02T23:38:27.907Z,3.43
2022-12-02T23:40:54.940Z,3.44
2022-12-02T23:43:21.961Z,3.39
2022-12-02T23:45:49.085Z,3.38
2022-12-02T23:48:16.119Z,3.43
2022-12-02T23:50:43.258Z,3.43
2022-12-02T23:53:10.259Z,3.44
2022-12-02T23:55:37.269Z,3.41
2022-12-02T23:58:04.220Z,3.44
